sensor_id;sensor_type;location;lat;lon;timestamp;temperature;humidity
80367;DHT22;70058;42.660;23.366;2023-09-18T00:01:56;17.80;71.80
80367;DHT22;70058;42.660;23.366;2023-09-18T00:04:21;18.10;70.90
80367;DHT22;70058;42.660;23.366;2023-09-18T00:06:47;18.20;70.20
80367;DHT22;70058;42.660;23.366;2023-09-18T00:09:13;18.30;69.80
80367;DHT22;70058;42.660;23.366;2023-09-18T00:11:39;18.30;69.80
80367;DHT22;70058;42.660;23.366;2023-09-18T00:14:07;18.10;70.40
80367;DHT22;70058;42.660;23.366;2023-09-18T00:16:32;18.10;70.70
80367;DHT22;70058;42.660;23.366;2023-09-18T00:18:58;18.00;70.60
80367;DHT22;70058;42.660;23.366;2023-09-18T00:21:24;17.70;72.00
80367;DHT22;70058;42.660;23.366;2023-09-18T00:23:51;17.90;71.60
80367;DHT22;70058;42.660;23.366;2023-09-18T00:26:17;17.80;71.50
80367;DHT22;70058;42.660;23.366;2023-09-18T00:28:42;17.80;71.90
80367;DHT22;70058;42.660;23.366;2023-09-18T00:31:08;17.70;72.00
80367;DHT22;70058;42.660;23.366;2023-09-18T00:33:35;17.70;71.90
80367;DHT22;70058;42.660;23.366;2023-09-18T00:36:01;17.80;71.50
80367;DHT22;70058;42.660;23.366;2023-09-18T00:38:26;17.70;71.60
80367;DHT22;70058;42.660;23.366;2023-09-18T00:40:52;17.90;71.20
80367;DHT22;70058;42.660;23.366;2023-09-18T00:43:17;18.10;70.40
80367;DHT22;70058;42.660;23.366;2023-09-18T00:45:45;18.10;70.10
80367;DHT22;70058;42.660;23.366;2023-09-18T00:48:12;18.10;69.70
80367;DHT22;70058;42.660;23.366;2023-09-18T00:50:38;18.00;69.90
80367;DHT22;70058;42.660;23.366;2023-09-18T00:53:04;18.20;69.60
80367;DHT22;70058;42.660;23.366;2023-09-18T00:55:32;18.20;70.20
80367;DHT22;70058;42.660;23.366;2023-09-18T00:57:58;18.10;69.90
80367;DHT22;70058;42.660;23.366;2023-09-18T01:00:24;18.00;70.40
80367;DHT22;70058;42.660;23.366;2023-09-18T01:02:50;17.90;70.50
80367;DHT22;70058;42.660;23.366;2023-09-18T01:05:15;17.90;71.00
80367;DHT22;70058;42.660;23.366;2023-09-18T01:07:45;17.80;71.00
80367;DHT22;70058;42.660;23.366;2023-09-18T01:10:11;17.80;71.20
80367;DHT22;70058;42.660;23.366;2023-09-18T01:13:10;17.80;71.20
80367;DHT22;70058;42.660;23.366;2023-09-18T01:15:54;18.00;70.80
80367;DHT22;70058;42.660;23.366;2023-09-18T01:18:20;17.90;70.60
80367;DHT22;70058;42.660;23.366;2023-09-18T01:20:46;17.90;70.50
80367;DHT22;70058;42.660;23.366;2023-09-18T01:23:12;17.70;70.80
80367;DHT22;70058;42.660;23.366;2023-09-18T01:25:38;17.70;71.10
80367;DHT22;70058;42.660;23.366;2023-09-18T01:28:03;17.40;72.20
80367;DHT22;70058;42.660;23.366;2023-09-18T01:30:29;17.40;72.10
80367;DHT22;70058;42.660;23.366;2023-09-18T01:32:57;17.40;72.10
80367;DHT22;70058;42.660;23.366;2023-09-18T01:35:26;17.40;72.20
80367;DHT22;70058;42.660;23.366;2023-09-18T01:37:59;17.40;71.90
80367;DHT22;70058;42.660;23.366;2023-09-18T01:40:25;17.60;71.60
80367;DHT22;70058;42.660;23.366;2023-09-18T01:42:52;17.50;71.40
80367;DHT22;70058;42.660;23.366;2023-09-18T01:45:18;17.70;71.00
80367;DHT22;70058;42.660;23.366;2023-09-18T01:47:45;17.30;71.90
80367;DHT22;70058;42.660;23.366;2023-09-18T01:50:11;17.10;72.70
80367;DHT22;70058;42.660;23.366;2023-09-18T01:52:37;17.00;73.50
80367;DHT22;70058;42.660;23.366;2023-09-18T01:55:03;17.00;73.70
80367;DHT22;70058;42.660;23.366;2023-09-18T01:57:33;17.10;73.20
80367;DHT22;70058;42.660;23.366;2023-09-18T01:59:59;17.40;72.10
80367;DHT22;70058;42.660;23.366;2023-09-18T02:02:24;17.50;71.00
80367;DHT22;70058;42.660;23.366;2023-09-18T02:04:50;17.50;70.90
80367;DHT22;70058;42.660;23.366;2023-09-18T02:07:16;17.40;71.20
80367;DHT22;70058;42.660;23.366;2023-09-18T02:09:41;17.40;71.20
80367;DHT22;70058;42.660;23.366;2023-09-18T02:12:07;17.40;71.20
80367;DHT22;70058;42.660;23.366;2023-09-18T02:14:33;17.70;70.50
80367;DHT22;70058;42.660;23.366;2023-09-18T02:16:59;17.40;70.90
80367;DHT22;70058;42.660;23.366;2023-09-18T02:19:25;17.40;71.30
80367;DHT22;70058;42.660;23.366;2023-09-18T02:21:51;17.60;70.80
80367;DHT22;70058;42.660;23.366;2023-09-18T02:24:17;17.60;70.30
80367;DHT22;70058;42.660;23.366;2023-09-18T02:26:43;17.70;70.10
80367;DHT22;70058;42.660;23.366;2023-09-18T02:29:10;17.80;69.70
80367;DHT22;70058;42.660;23.366;2023-09-18T02:31:37;17.80;69.80
80367;DHT22;70058;42.660;23.366;2023-09-18T02:34:03;18.00;69.10
80367;DHT22;70058;42.660;23.366;2023-09-18T02:36:29;18.10;68.40
80367;DHT22;70058;42.660;23.366;2023-09-18T02:38:54;18.00;68.30
80367;DHT22;70058;42.660;23.366;2023-09-18T02:41:21;17.90;69.00
80367;DHT22;70058;42.660;23.366;2023-09-18T02:43:46;17.60;69.50
80367;DHT22;70058;42.660;23.366;2023-09-18T02:46:12;17.60;69.80
80367;DHT22;70058;42.660;23.366;2023-09-18T02:48:38;17.70;69.40
80367;DHT22;70058;42.660;23.366;2023-09-18T02:51:05;17.80;69.20
80367;DHT22;70058;42.660;23.366;2023-09-18T02:53:32;17.80;69.00
80367;DHT22;70058;42.660;23.366;2023-09-18T02:55:58;17.80;68.90
80367;DHT22;70058;42.660;23.366;2023-09-18T02:58:25;18.00;68.60
80367;DHT22;70058;42.660;23.366;2023-09-18T03:00:52;18.00;68.20
80367;DHT22;70058;42.660;23.366;2023-09-18T03:03:18;18.00;68.20
80367;DHT22;70058;42.660;23.366;2023-09-18T03:05:44;18.00;68.30
80367;DHT22;70058;42.660;23.366;2023-09-18T03:08:11;17.80;69.00
80367;DHT22;70058;42.660;23.366;2023-09-18T03:10:38;17.80;68.80
80367;DHT22;70058;42.660;23.366;2023-09-18T03:13:08;18.00;68.10
80367;DHT22;70058;42.660;23.366;2023-09-18T03:15:34;18.00;68.10
80367;DHT22;70058;42.660;23.366;2023-09-18T03:18:01;17.90;68.50
80367;DHT22;70058;42.660;23.366;2023-09-18T03:20:28;18.00;68.10
80367;DHT22;70058;42.660;23.366;2023-09-18T03:22:56;18.10;67.70
80367;DHT22;70058;42.660;23.366;2023-09-18T03:25:22;17.90;68.20
80367;DHT22;70058;42.660;23.366;2023-09-18T03:27:50;17.80;68.40
80367;DHT22;70058;42.660;23.366;2023-09-18T03:30:16;18.00;68.10
80367;DHT22;70058;42.660;23.366;2023-09-18T03:32:42;17.70;68.80
80367;DHT22;70058;42.660;23.366;2023-09-18T03:35:10;17.60;69.20
80367;DHT22;70058;42.660;23.366;2023-09-18T03:37:43;17.60;69.20
80367;DHT22;70058;42.660;23.366;2023-09-18T03:40:09;17.30;70.20
80367;DHT22;70058;42.660;23.366;2023-09-18T03:42:35;17.30;70.50
80367;DHT22;70058;42.660;23.366;2023-09-18T03:45:01;17.40;70.40
80367;DHT22;70058;42.660;23.366;2023-09-18T03:47:28;17.50;69.90
80367;DHT22;70058;42.660;23.366;2023-09-18T03:49:54;17.30;70.10
80367;DHT22;70058;42.660;23.366;2023-09-18T03:52:20;17.30;70.30
80367;DHT22;70058;42.660;23.366;2023-09-18T03:54:45;17.30;70.30
80367;DHT22;70058;42.660;23.366;2023-09-18T03:57:11;17.50;69.80
80367;DHT22;70058;42.660;23.366;2023-09-18T03:59:37;17.40;69.50
80367;DHT22;70058;42.660;23.366;2023-09-18T04:02:02;17.20;70.90
80367;DHT22;70058;42.660;23.366;2023-09-18T04:04:29;17.20;70.60
80367;DHT22;70058;42.660;23.366;2023-09-18T04:06:55;17.50;70.00
80367;DHT22;70058;42.660;23.366;2023-09-18T04:09:21;17.60;69.20
80367;DHT22;70058;42.660;23.366;2023-09-18T04:11:46;17.70;69.20
80367;DHT22;70058;42.660;23.366;2023-09-18T04:14:12;17.50;69.10
80367;DHT22;70058;42.660;23.366;2023-09-18T04:16:39;17.50;69.70
80367;DHT22;70058;42.660;23.366;2023-09-18T04:19:07;17.60;69.40
80367;DHT22;70058;42.660;23.366;2023-09-18T04:21:32;17.30;69.80
80367;DHT22;70058;42.660;23.366;2023-09-18T04:23:58;17.30;70.50
80367;DHT22;70058;42.660;23.366;2023-09-18T04:26:27;17.40;70.20
80367;DHT22;70058;42.660;23.366;2023-09-18T04:28:57;17.50;69.50
80367;DHT22;70058;42.660;23.366;2023-09-18T04:31:23;17.50;69.80
80367;DHT22;70058;42.660;23.366;2023-09-18T04:33:49;17.60;69.10
80367;DHT22;70058;42.660;23.366;2023-09-18T04:36:15;17.70;68.50
80367;DHT22;70058;42.660;23.366;2023-09-18T04:38:41;17.80;68.30
80367;DHT22;70058;42.660;23.366;2023-09-18T04:41:07;17.90;68.20
80367;DHT22;70058;42.660;23.366;2023-09-18T04:43:35;18.00;67.80
80367;DHT22;70058;42.660;23.366;2023-09-18T04:46:01;18.10;67.50
80367;DHT22;70058;42.660;23.366;2023-09-18T04:48:29;17.90;67.90
80367;DHT22;70058;42.660;23.366;2023-09-18T04:50:56;17.80;68.60
80367;DHT22;70058;42.660;23.366;2023-09-18T04:53:21;17.80;68.80
80367;DHT22;70058;42.660;23.366;2023-09-18T04:55:47;17.70;69.40
80367;DHT22;70058;42.660;23.366;2023-09-18T04:58:17;17.90;68.50
80367;DHT22;70058;42.660;23.366;2023-09-18T05:00:43;18.10;67.70
80367;DHT22;70058;42.660;23.366;2023-09-18T05:03:09;18.10;67.30
80367;DHT22;70058;42.660;23.366;2023-09-18T05:05:36;18.00;68.00
80367;DHT22;70058;42.660;23.366;2023-09-18T05:08:08;18.20;67.30
80367;DHT22;70058;42.660;23.366;2023-09-18T05:10:37;18.10;68.00
80367;DHT22;70058;42.660;23.366;2023-09-18T05:13:03;18.30;67.00
80367;DHT22;70058;42.660;23.366;2023-09-18T05:15:30;18.60;66.30
80367;DHT22;70058;42.660;23.366;2023-09-18T05:18:02;18.50;66.70
80367;DHT22;70058;42.660;23.366;2023-09-18T05:20:30;18.60;66.20
80367;DHT22;70058;42.660;23.366;2023-09-18T05:22:57;18.70;65.90
80367;DHT22;70058;42.660;23.366;2023-09-18T05:25:27;18.40;66.30
80367;DHT22;70058;42.660;23.366;2023-09-18T05:28:00;17.90;68.50
80367;DHT22;70058;42.660;23.366;2023-09-18T05:30:27;18.20;67.80
80367;DHT22;70058;42.660;23.366;2023-09-18T05:32:57;18.50;66.80
80367;DHT22;70058;42.660;23.366;2023-09-18T05:35:45;18.80;65.10
80367;DHT22;70058;42.660;23.366;2023-09-18T05:38:12;18.70;65.60
80367;DHT22;70058;42.660;23.366;2023-09-18T05:40:39;18.70;65.40
80367;DHT22;70058;42.660;23.366;2023-09-18T05:43:05;18.50;66.50
80367;DHT22;70058;42.660;23.366;2023-09-18T05:45:31;18.70;65.60
80367;DHT22;70058;42.660;23.366;2023-09-18T05:47:59;18.70;66.10
80367;DHT22;70058;42.660;23.366;2023-09-18T05:50:32;18.60;65.90
80367;DHT22;70058;42.660;23.366;2023-09-18T05:52:59;18.60;66.40
80367;DHT22;70058;42.660;23.366;2023-09-18T05:55:26;18.70;66.40
80367;DHT22;70058;42.660;23.366;2023-09-18T05:57:53;19.00;65.10
80367;DHT22;70058;42.660;23.366;2023-09-18T06:00:19;19.40;64.20
80367;DHT22;70058;42.660;23.366;2023-09-18T06:02:46;19.40;63.70
80367;DHT22;70058;42.660;23.366;2023-09-18T06:05:13;19.70;62.70
80367;DHT22;70058;42.660;23.366;2023-09-18T06:07:47;19.80;62.90
80367;DHT22;70058;42.660;23.366;2023-09-18T06:10:22;20.30;61.70
80367;DHT22;70058;42.660;23.366;2023-09-18T06:12:48;20.70;60.60
80367;DHT22;70058;42.660;23.366;2023-09-18T06:15:14;20.70;60.20
80367;DHT22;70058;42.660;23.366;2023-09-18T06:17:43;20.50;60.00
80367;DHT22;70058;42.660;23.366;2023-09-18T06:20:11;20.60;60.20
80367;DHT22;70058;42.660;23.366;2023-09-18T06:22:41;20.00;62.60
80367;DHT22;70058;42.660;23.366;2023-09-18T06:25:08;20.60;61.10
80367;DHT22;70058;42.660;23.366;2023-09-18T06:27:37;21.80;57.80
80367;DHT22;70058;42.660;23.366;2023-09-18T06:30:04;22.50;55.10
80367;DHT22;70058;42.660;23.366;2023-09-18T06:32:30;22.70;52.80
80367;DHT22;70058;42.660;23.366;2023-09-18T06:34:56;23.40;52.40
80367;DHT22;70058;42.660;23.366;2023-09-18T06:37:23;24.10;49.50
80367;DHT22;70058;42.660;23.366;2023-09-18T06:39:49;23.80;49.50
80367;DHT22;70058;42.660;23.366;2023-09-18T06:42:15;25.40;46.50
80367;DHT22;70058;42.660;23.366;2023-09-18T06:44:40;28.00;42.00
80367;DHT22;70058;42.660;23.366;2023-09-18T06:47:06;30.40;37.10
80367;DHT22;70058;42.660;23.366;2023-09-18T06:49:32;30.30;35.90
80367;DHT22;70058;42.660;23.366;2023-09-18T06:51:58;32.00;35.40
80367;DHT22;70058;42.660;23.366;2023-09-18T06:54:24;32.50;32.50
80367;DHT22;70058;42.660;23.366;2023-09-18T06:56:49;34.00;31.40
80367;DHT22;70058;42.660;23.366;2023-09-18T06:59:16;32.00;30.50
80367;DHT22;70058;42.660;23.366;2023-09-18T07:01:45;31.50;33.70
80367;DHT22;70058;42.660;23.366;2023-09-18T07:04:10;32.00;33.10
80367;DHT22;70058;42.660;23.366;2023-09-18T07:06:37;32.30;32.10
80367;DHT22;70058;42.660;23.366;2023-09-18T07:09:03;32.40;30.30
80367;DHT22;70058;42.660;23.366;2023-09-18T07:11:30;31.80;31.80
80367;DHT22;70058;42.660;23.366;2023-09-18T07:14:07;31.50;33.20
80367;DHT22;70058;42.660;23.366;2023-09-18T07:16:38;31.80;32.70
80367;DHT22;70058;42.660;23.366;2023-09-18T07:19:10;32.80;31.80
80367;DHT22;70058;42.660;23.366;2023-09-18T07:21:42;34.30;29.90
80367;DHT22;70058;42.660;23.366;2023-09-18T07:24:08;33.10;29.80
80367;DHT22;70058;42.660;23.366;2023-09-18T07:26:35;33.90;29.40
80367;DHT22;70058;42.660;23.366;2023-09-18T07:29:01;34.40;29.40
80367;DHT22;70058;42.660;23.366;2023-09-18T07:31:27;35.40;28.30
80367;DHT22;70058;42.660;23.366;2023-09-18T07:33:52;35.10;28.50
80367;DHT22;70058;42.660;23.366;2023-09-18T07:36:18;35.80;27.50
80367;DHT22;70058;42.660;23.366;2023-09-18T07:38:45;35.90;27.40
80367;DHT22;70058;42.660;23.366;2023-09-18T07:41:11;35.90;27.50
80367;DHT22;70058;42.660;23.366;2023-09-18T07:43:37;36.10;27.30
80367;DHT22;70058;42.660;23.366;2023-09-18T07:46:04;37.50;26.10
80367;DHT22;70058;42.660;23.366;2023-09-18T07:48:30;38.00;25.50
80367;DHT22;70058;42.660;23.366;2023-09-18T07:50:56;36.90;25.50
80367;DHT22;70058;42.660;23.366;2023-09-18T07:53:22;38.10;25.50
80367;DHT22;70058;42.660;23.366;2023-09-18T07:55:57;37.30;25.40
80367;DHT22;70058;42.660;23.366;2023-09-18T07:58:25;36.40;26.50
80367;DHT22;70058;42.660;23.366;2023-09-18T08:00:54;34.90;26.40
80367;DHT22;70058;42.660;23.366;2023-09-18T08:03:20;34.60;28.00
80367;DHT22;70058;42.660;23.366;2023-09-18T08:05:50;36.60;26.60
80367;DHT22;70058;42.660;23.366;2023-09-18T08:08:18;38.10;25.70
80367;DHT22;70058;42.660;23.366;2023-09-18T08:10:48;39.40;24.10
80367;DHT22;70058;42.660;23.366;2023-09-18T08:13:14;39.30;24.30
80367;DHT22;70058;42.660;23.366;2023-09-18T08:15:41;40.30;22.90
80367;DHT22;70058;42.660;23.366;2023-09-18T08:18:11;36.90;24.70
80367;DHT22;70058;42.660;23.366;2023-09-18T08:20:59;38.70;24.10
80367;DHT22;70058;42.660;23.366;2023-09-18T08:23:25;39.40;23.50
80367;DHT22;70058;42.660;23.366;2023-09-18T08:26:17;37.60;24.20
80367;DHT22;70058;42.660;23.366;2023-09-18T08:28:50;38.00;24.60
80367;DHT22;70058;42.660;23.366;2023-09-18T08:31:18;36.30;25.90
80367;DHT22;70058;42.660;23.366;2023-09-18T08:33:44;38.80;24.10
80367;DHT22;70058;42.660;23.366;2023-09-18T08:36:09;37.10;24.80
80367;DHT22;70058;42.660;23.366;2023-09-18T08:38:35;39.10;24.20
80367;DHT22;70058;42.660;23.366;2023-09-18T08:41:04;40.40;22.80
80367;DHT22;70058;42.660;23.366;2023-09-18T08:43:32;41.20;22.00
80367;DHT22;70058;42.660;23.366;2023-09-18T08:45:59;38.00;22.70
80367;DHT22;70058;42.660;23.366;2023-09-18T08:49:32;36.40;24.50
80367;DHT22;70058;42.660;23.366;2023-09-18T08:56:03;40.80;22.20
80367;DHT22;70058;42.660;23.366;2023-09-18T09:06:08;37.30;23.20
80367;DHT22;70058;42.660;23.366;2023-09-18T09:08:34;38.80;23.50
80367;DHT22;70058;42.660;23.366;2023-09-18T09:11:04;40.50;22.00
80367;DHT22;70058;42.660;23.366;2023-09-18T09:13:30;39.10;22.40
80367;DHT22;70058;42.660;23.366;2023-09-18T09:15:57;40.90;21.30
80367;DHT22;70058;42.660;23.366;2023-09-18T09:18:26;41.10;21.60
80367;DHT22;70058;42.660;23.366;2023-09-18T09:21:15;41.90;20.70
80367;DHT22;70058;42.660;23.366;2023-09-18T09:23:47;39.40;21.20
80367;DHT22;70058;42.660;23.366;2023-09-18T09:26:24;37.80;23.50
80367;DHT22;70058;42.660;23.366;2023-09-18T09:28:53;34.90;25.30
80367;DHT22;70058;42.660;23.366;2023-09-18T09:31:27;37.30;24.40
80367;DHT22;70058;42.660;23.366;2023-09-18T09:34:29;38.60;23.10
80367;DHT22;70058;42.660;23.366;2023-09-18T09:37:04;41.10;21.00
80367;DHT22;70058;42.660;23.366;2023-09-18T09:39:32;39.00;22.50
80367;DHT22;70058;42.660;23.366;2023-09-18T09:42:03;39.60;22.50
80367;DHT22;70058;42.660;23.366;2023-09-18T09:44:34;41.60;21.00
80367;DHT22;70058;42.660;23.366;2023-09-18T09:47:00;42.50;20.10
80367;DHT22;70058;42.660;23.366;2023-09-18T09:49:26;39.50;21.00
80367;DHT22;70058;42.660;23.366;2023-09-18T09:51:58;35.40;23.50
80367;DHT22;70058;42.660;23.366;2023-09-18T09:54:36;29.10;31.70
80367;DHT22;70058;42.660;23.366;2023-09-18T09:57:06;28.10;35.10
80367;DHT22;70058;42.660;23.366;2023-09-18T09:59:31;30.50;31.40
80367;DHT22;70058;42.660;23.366;2023-09-18T10:02:02;32.10;29.20
80367;DHT22;70058;42.660;23.366;2023-09-18T10:04:29;35.00;26.40
80367;DHT22;70058;42.660;23.366;2023-09-18T10:07:06;37.40;23.70
80367;DHT22;70058;42.660;23.366;2023-09-18T10:09:35;33.70;25.80
80367;DHT22;70058;42.660;23.366;2023-09-18T10:12:04;34.80;25.90
80367;DHT22;70058;42.660;23.366;2023-09-18T10:14:43;36.60;23.90
80367;DHT22;70058;42.660;23.366;2023-09-18T10:19:57;35.90;24.70
80367;DHT22;70058;42.660;23.366;2023-09-18T10:25:11;32.80;28.00
80367;DHT22;70058;42.660;23.366;2023-09-18T10:27:48;32.70;28.20
80367;DHT22;70058;42.660;23.366;2023-09-18T10:30:16;32.60;28.80
80367;DHT22;70058;42.660;23.366;2023-09-18T10:32:45;32.50;28.50
80367;DHT22;70058;42.660;23.366;2023-09-18T10:35:11;32.50;28.60
80367;DHT22;70058;42.660;23.366;2023-09-18T10:37:38;32.60;28.10
80367;DHT22;70058;42.660;23.366;2023-09-18T10:40:13;32.20;28.90
80367;DHT22;70058;42.660;23.366;2023-09-18T10:42:40;30.80;29.60
80367;DHT22;70058;42.660;23.366;2023-09-18T10:45:10;30.40;30.40
80367;DHT22;70058;42.660;23.366;2023-09-18T10:47:38;28.30;34.20
80367;DHT22;70058;42.660;23.366;2023-09-18T10:50:06;26.70;36.00
80367;DHT22;70058;42.660;23.366;2023-09-18T10:55:36;25.50;38.80
80367;DHT22;70058;42.660;23.366;2023-09-18T10:58:03;25.70;38.90
80367;DHT22;70058;42.660;23.366;2023-09-18T11:00:31;26.30;37.60
80367;DHT22;70058;42.660;23.366;2023-09-18T11:03:29;26.50;37.90
80367;DHT22;70058;42.660;23.366;2023-09-18T11:06:06;26.00;37.60
80367;DHT22;70058;42.660;23.366;2023-09-18T11:08:33;26.10;38.20
80367;DHT22;70058;42.660;23.366;2023-09-18T11:11:08;26.20;37.50
80367;DHT22;70058;42.660;23.366;2023-09-18T11:13:47;26.00;38.70
80367;DHT22;70058;42.660;23.366;2023-09-18T11:18:52;26.10;39.30
80367;DHT22;70058;42.660;23.366;2023-09-18T11:21:24;26.20;38.10
80367;DHT22;70058;42.660;23.366;2023-09-18T11:23:58;26.30;37.80
80367;DHT22;70058;42.660;23.366;2023-09-18T11:26:29;26.40;37.10
80367;DHT22;70058;42.660;23.366;2023-09-18T11:28:55;26.80;35.60
80367;DHT22;70058;42.660;23.366;2023-09-18T11:31:21;26.60;36.10
80367;DHT22;70058;42.660;23.366;2023-09-18T11:34:27;26.50;36.20
80367;DHT22;70058;42.660;23.366;2023-09-18T11:37:22;26.50;36.90
80367;DHT22;70058;42.660;23.366;2023-09-18T11:39:48;26.10;37.50
80367;DHT22;70058;42.660;23.366;2023-09-18T11:42:19;25.60;38.00
80367;DHT22;70058;42.660;23.366;2023-09-18T11:44:51;25.70;38.20
80367;DHT22;70058;42.660;23.366;2023-09-18T11:47:19;25.90;38.50
80367;DHT22;70058;42.660;23.366;2023-09-18T11:49:53;25.60;38.20
80367;DHT22;70058;42.660;23.366;2023-09-18T11:52:28;26.10;38.30
80367;DHT22;70058;42.660;23.366;2023-09-18T11:54:56;26.20;37.70
80367;DHT22;70058;42.660;23.366;2023-09-18T11:57:22;26.50;37.70
80367;DHT22;70058;42.660;23.366;2023-09-18T11:59:48;26.60;36.90
80367;DHT22;70058;42.660;23.366;2023-09-18T12:02:27;26.50;37.10
80367;DHT22;70058;42.660;23.366;2023-09-18T12:05:11;26.30;37.50
80367;DHT22;70058;42.660;23.366;2023-09-18T12:07:46;26.30;38.60
80367;DHT22;70058;42.660;23.366;2023-09-18T12:10:18;26.20;37.30
80367;DHT22;70058;42.660;23.366;2023-09-18T12:12:50;26.50;36.80
80367;DHT22;70058;42.660;23.366;2023-09-18T12:15:19;26.00;37.30
80367;DHT22;70058;42.660;23.366;2023-09-18T12:17:53;25.80;38.60
80367;DHT22;70058;42.660;23.366;2023-09-18T12:20:19;26.30;38.70
80367;DHT22;70058;42.660;23.366;2023-09-18T12:22:48;26.60;37.50
80367;DHT22;70058;42.660;23.366;2023-09-18T12:25:15;26.20;37.90
80367;DHT22;70058;42.660;23.366;2023-09-18T12:27:42;26.30;38.80
80367;DHT22;70058;42.660;23.366;2023-09-18T12:30:08;26.40;38.50
80367;DHT22;70058;42.660;23.366;2023-09-18T12:32:38;26.40;38.90
80367;DHT22;70058;42.660;23.366;2023-09-18T12:35:06;26.70;38.00
80367;DHT22;70058;42.660;23.366;2023-09-18T12:37:39;26.80;37.20
80367;DHT22;70058;42.660;23.366;2023-09-18T12:40:25;26.60;37.10
80367;DHT22;70058;42.660;23.366;2023-09-18T12:42:51;26.60;37.40
80367;DHT22;70058;42.660;23.366;2023-09-18T12:45:19;26.90;36.40
80367;DHT22;70058;42.660;23.366;2023-09-18T12:47:45;26.50;36.20
80367;DHT22;70058;42.660;23.366;2023-09-18T12:50:14;26.70;37.40
80367;DHT22;70058;42.660;23.366;2023-09-18T12:52:41;26.90;35.90
80367;DHT22;70058;42.660;23.366;2023-09-18T12:55:08;26.10;37.70
80367;DHT22;70058;42.660;23.366;2023-09-18T12:57:39;26.20;37.10
80367;DHT22;70058;42.660;23.366;2023-09-18T13:00:10;26.10;36.80
80367;DHT22;70058;42.660;23.366;2023-09-18T13:02:45;26.00;36.90
80367;DHT22;70058;42.660;23.366;2023-09-18T13:05:11;26.00;37.60
80367;DHT22;70058;42.660;23.366;2023-09-18T13:07:45;26.10;37.80
80367;DHT22;70058;42.660;23.366;2023-09-18T13:10:11;26.00;37.30
80367;DHT22;70058;42.660;23.366;2023-09-18T13:15:30;25.70;38.50
80367;DHT22;70058;42.660;23.366;2023-09-18T13:18:09;25.60;39.00
80367;DHT22;70058;42.660;23.366;2023-09-18T13:20:36;25.40;39.70
80367;DHT22;70058;42.660;23.366;2023-09-18T13:23:01;25.60;39.00
80367;DHT22;70058;42.660;23.366;2023-09-18T13:25:29;25.70;38.30
80367;DHT22;70058;42.660;23.366;2023-09-18T13:27:56;25.40;39.50
80367;DHT22;70058;42.660;23.366;2023-09-18T13:30:22;25.50;40.20
80367;DHT22;70058;42.660;23.366;2023-09-18T13:32:49;24.90;39.40
80367;DHT22;70058;42.660;23.366;2023-09-18T13:35:16;25.00;40.30
80367;DHT22;70058;42.660;23.366;2023-09-18T13:37:42;25.00;40.00
80367;DHT22;70058;42.660;23.366;2023-09-18T13:40:09;25.10;39.10
80367;DHT22;70058;42.660;23.366;2023-09-18T13:42:38;25.40;39.00
80367;DHT22;70058;42.660;23.366;2023-09-18T13:45:05;25.50;38.80
80367;DHT22;70058;42.660;23.366;2023-09-18T13:47:35;25.70;38.20
80367;DHT22;70058;42.660;23.366;2023-09-18T13:50:04;25.70;37.90
80367;DHT22;70058;42.660;23.366;2023-09-18T13:52:31;25.40;38.00
80367;DHT22;70058;42.660;23.366;2023-09-18T13:54:57;25.20;38.90
80367;DHT22;70058;42.660;23.366;2023-09-18T13:57:24;25.20;38.70
80367;DHT22;70058;42.660;23.366;2023-09-18T13:59:56;25.50;38.10
80367;DHT22;70058;42.660;23.366;2023-09-18T14:02:22;25.90;36.90
80367;DHT22;70058;42.660;23.366;2023-09-18T14:04:53;25.70;36.50
80367;DHT22;70058;42.660;23.366;2023-09-18T14:07:18;25.80;37.10
80367;DHT22;70058;42.660;23.366;2023-09-18T14:09:44;25.40;37.60
80367;DHT22;70058;42.660;23.366;2023-09-18T14:12:12;25.40;38.20
80367;DHT22;70058;42.660;23.366;2023-09-18T14:14:37;25.50;38.00
80367;DHT22;70058;42.660;23.366;2023-09-18T14:17:06;25.70;37.70
80367;DHT22;70058;42.660;23.366;2023-09-18T14:19:31;26.10;37.40
80367;DHT22;70058;42.660;23.366;2023-09-18T14:21:57;25.90;38.80
80367;DHT22;70058;42.660;23.366;2023-09-18T14:24:27;26.00;38.20
80367;DHT22;70058;42.660;23.366;2023-09-18T14:26:53;26.00;38.20
80367;DHT22;70058;42.660;23.366;2023-09-18T14:29:20;25.90;39.00
80367;DHT22;70058;42.660;23.366;2023-09-18T14:31:46;26.20;39.20
80367;DHT22;70058;42.660;23.366;2023-09-18T14:34:12;25.90;38.90
80367;DHT22;70058;42.660;23.366;2023-09-18T14:36:38;26.10;38.80
80367;DHT22;70058;42.660;23.366;2023-09-18T14:39:09;26.30;38.60
80367;DHT22;70058;42.660;23.366;2023-09-18T14:41:38;26.00;39.50
80367;DHT22;70058;42.660;23.366;2023-09-18T14:44:09;26.20;38.80
80367;DHT22;70058;42.660;23.366;2023-09-18T14:46:38;26.00;38.60
80367;DHT22;70058;42.660;23.366;2023-09-18T14:49:05;25.50;39.60
80367;DHT22;70058;42.660;23.366;2023-09-18T14:51:31;25.00;40.40
80367;DHT22;70058;42.660;23.366;2023-09-18T14:53:58;25.10;40.60
80367;DHT22;70058;42.660;23.366;2023-09-18T14:56:26;25.20;40.50
80367;DHT22;70058;42.660;23.366;2023-09-18T14:58:52;25.20;40.40
80367;DHT22;70058;42.660;23.366;2023-09-18T15:01:21;24.90;40.80
80367;DHT22;70058;42.660;23.366;2023-09-18T15:03:47;24.50;41.50
80367;DHT22;70058;42.660;23.366;2023-09-18T15:06:16;24.50;41.70
80367;DHT22;70058;42.660;23.366;2023-09-18T15:08:42;24.50;42.10
80367;DHT22;70058;42.660;23.366;2023-09-18T15:11:07;24.60;41.80
80367;DHT22;70058;42.660;23.366;2023-09-18T15:13:33;24.80;41.40
80367;DHT22;70058;42.660;23.366;2023-09-18T15:16:03;24.90;41.50
80367;DHT22;70058;42.660;23.366;2023-09-18T15:18:29;24.80;40.90
80367;DHT22;70058;42.660;23.366;2023-09-18T15:20:55;24.80;41.70
80367;DHT22;70058;42.660;23.366;2023-09-18T15:23:24;24.80;42.00
80367;DHT22;70058;42.660;23.366;2023-09-18T15:26:22;25.00;41.60
80367;DHT22;70058;42.660;23.366;2023-09-18T15:28:47;25.30;41.00
80367;DHT22;70058;42.660;23.366;2023-09-18T15:33:44;25.50;40.90
80367;DHT22;70058;42.660;23.366;2023-09-18T15:36:10;25.70;40.60
80367;DHT22;70058;42.660;23.366;2023-09-18T15:38:36;25.40;41.00
80367;DHT22;70058;42.660;23.366;2023-09-18T15:41:02;25.40;41.00
80367;DHT22;70058;42.660;23.366;2023-09-18T15:43:28;25.00;40.90
80367;DHT22;70058;42.660;23.366;2023-09-18T15:45:55;25.10;42.00
80367;DHT22;70058;42.660;23.366;2023-09-18T15:48:23;24.60;42.10
80367;DHT22;70058;42.660;23.366;2023-09-18T15:50:50;24.60;42.30
80367;DHT22;70058;42.660;23.366;2023-09-18T15:53:15;24.90;42.00